sensor_id;sensor_type;location;lat;lon;timestamp;P1;durP1;ratioP1;P2;durP2;ratioP2
8371;SDS011;4223;48.724;8.982;2023-01-25T00:01:53;8.17;;;7.43;;
8371;SDS011;4223;48.724;8.982;2023-01-25T00:04:20;9.70;;;8.83;;
8371;SDS011;4223;48.724;8.982;2023-01-25T00:06:48;7.00;;;6.40;;
8371;SDS011;4223;48.724;8.982;2023-01-25T00:09:15;51.70;;;10.77;;
8371;SDS011;4223;48.724;8.982;2023-01-25T00:11:44;9.67;;;8.67;;
8371;SDS011;4223;48.724;8.982;2023-01-25T00:14:11;11.73;;;10.73;;
8371;SDS011;4223;48.724;8.982;2023-01-25T00:16:39;15.10;;;9.47;;
8371;SDS011;4223;48.724;8.982;2023-01-25T00:19:06;11.13;;;9.67;;
8371;SDS011;4223;48.724;8.982;2023-01-25T00:21:34;9.60;;;8.63;;
8371;SDS011;4223;48.724;8.982;2023-01-25T00:24:02;10.37;;;9.57;;
8371;SDS011;4223;48.724;8.982;2023-01-25T00:26:30;7.60;;;6.93;;
8371;SDS011;4223;48.724;8.982;2023-01-25T00:28:59;9.33;;;8.57;;
8371;SDS011;4223;48.724;8.982;2023-01-25T00:31:31;13.17;;;9.83;;
8371;SDS011;4223;48.724;8.982;2023-01-25T00:34:05;10.60;;;9.63;;
8371;SDS011;4223;48.724;8.982;2023-01-25T00:36:45;13.40;;;12.13;;
8371;SDS011;4223;48.724;8.982;2023-01-25T00:39:16;12.43;;;11.17;;
8371;SDS011;4223;48.724;8.982;2023-01-25T00:41:43;17.33;;;12.30;;
8371;SDS011;4223;48.724;8.982;2023-01-25T00:44:11;12.97;;;11.37;;
8371;SDS011;4223;48.724;8.982;2023-01-25T00:46:38;10.10;;;9.00;;
8371;SDS011;4223;48.724;8.982;2023-01-25T00:49:05;10.30;;;8.77;;
8371;SDS011;4223;48.724;8.982;2023-01-25T00:51:32;14.13;;;9.03;;
8371;SDS011;4223;48.724;8.982;2023-01-25T00:53:59;11.43;;;7.77;;
8371;SDS011;4223;48.724;8.982;2023-01-25T00:56:25;9.67;;;8.70;;
8371;SDS011;4223;48.724;8.982;2023-01-25T00:58:52;8.30;;;7.47;;
8371;SDS011;4223;48.724;8.982;2023-01-25T01:01:20;8.33;;;7.67;;
8371;SDS011;4223;48.724;8.982;2023-01-25T01:03:47;13.07;;;11.80;;
8371;SDS011;4223;48.724;8.982;2023-01-25T01:06:16;9.50;;;8.57;;
8371;SDS011;4223;48.724;8.982;2023-01-25T01:08:43;7.50;;;6.93;;
8371;SDS011;4223;48.724;8.982;2023-01-25T01:11:10;10.33;;;9.37;;
8371;SDS011;4223;48.724;8.982;2023-01-25T01:13:38;14.50;;;11.17;;
8371;SDS011;4223;48.724;8.982;2023-01-25T01:16:06;8.57;;;7.87;;
8371;SDS011;4223;48.724;8.982;2023-01-25T01:18:38;9.70;;;8.77;;
8371;SDS011;4223;48.724;8.982;2023-01-25T01:21:06;9.97;;;7.93;;
8371;SDS011;4223;48.724;8.982;2023-01-25T01:23:33;10.03;;;9.10;;
8371;SDS011;4223;48.724;8.982;2023-01-25T01:26:01;10.30;;;9.13;;
8371;SDS011;4223;48.724;8.982;2023-01-25T01:28:29;13.40;;;9.07;;
8371;SDS011;4223;48.724;8.982;2023-01-25T01:30:58;10.97;;;9.97;;
8371;SDS011;4223;48.724;8.982;2023-01-25T01:33:25;10.93;;;9.93;;
8371;SDS011;4223;48.724;8.982;2023-01-25T01:35:54;9.43;;;8.53;;
8371;SDS011;4223;48.724;8.982;2023-01-25T01:38:21;16.50;;;11.13;;
8371;SDS011;4223;48.724;8.982;2023-01-25T01:40:48;9.53;;;8.17;;
8371;SDS011;4223;48.724;8.982;2023-01-25T01:43:16;9.80;;;8.03;;
8371;SDS011;4223;48.724;8.982;2023-01-25T01:45:48;9.60;;;8.83;;
8371;SDS011;4223;48.724;8.982;2023-01-25T01:48:18;12.90;;;11.57;;
8371;SDS011;4223;48.724;8.982;2023-01-25T01:50:56;11.07;;;9.97;;
8371;SDS011;4223;48.724;8.982;2023-01-25T01:53:25;10.53;;;9.57;;
8371;SDS011;4223;48.724;8.982;2023-01-25T01:55:55;11.73;;;10.60;;
8371;SDS011;4223;48.724;8.982;2023-01-25T01:58:25;11.90;;;10.70;;
8371;SDS011;4223;48.724;8.982;2023-01-25T02:00:54;9.47;;;8.67;;
8371;SDS011;4223;48.724;8.982;2023-01-25T02:03:21;14.13;;;9.90;;
8371;SDS011;4223;48.724;8.982;2023-01-25T02:05:50;10.83;;;9.00;;
8371;SDS011;4223;48.724;8.982;2023-01-25T02:08:22;9.87;;;8.57;;
8371;SDS011;4223;48.724;8.982;2023-01-25T02:10:49;13.50;;;10.67;;
8371;SDS011;4223;48.724;8.982;2023-01-25T02:13:16;12.37;;;7.97;;
8371;SDS011;4223;48.724;8.982;2023-01-25T02:15:44;9.37;;;8.67;;
8371;SDS011;4223;48.724;8.982;2023-01-25T02:18:14;12.60;;;9.97;;
8371;SDS011;4223;48.724;8.982;2023-01-25T02:20:43;9.20;;;8.17;;
8371;SDS011;4223;48.724;8.982;2023-01-25T02:23:15;7.63;;;7.13;;
8371;SDS011;4223;48.724;8.982;2023-01-25T02:25:47;9.80;;;7.37;;
8371;SDS011;4223;48.724;8.982;2023-01-25T02:28:16;9.17;;;8.57;;
8371;SDS011;4223;48.724;8.982;2023-01-25T02:30:46;7.47;;;6.90;;
8371;SDS011;4223;48.724;8.982;2023-01-25T02:33:13;8.63;;;7.80;;
8371;SDS011;4223;48.724;8.982;2023-01-25T02:35:41;9.80;;;8.57;;
8371;SDS011;4223;48.724;8.982;2023-01-25T02:38:10;8.43;;;7.63;;
8371;SDS011;4223;48.724;8.982;2023-01-25T02:40:40;9.80;;;9.00;;
8371;SDS011;4223;48.724;8.982;2023-01-25T02:43:13;9.07;;;8.17;;
8371;SDS011;4223;48.724;8.982;2023-01-25T02:45:40;12.20;;;11.13;;
8371;SDS011;4223;48.724;8.982;2023-01-25T02:48:11;16.00;;;9.43;;
8371;SDS011;4223;48.724;8.982;2023-01-25T02:50:37;9.77;;;8.17;;
8371;SDS011;4223;48.724;8.982;2023-01-25T02:53:04;8.97;;;8.10;;
8371;SDS011;4223;48.724;8.982;2023-01-25T02:55:31;11.43;;;8.93;;
8371;SDS011;4223;48.724;8.982;2023-01-25T02:57:58;9.23;;;8.43;;
8371;SDS011;4223;48.724;8.982;2023-01-25T03:00:26;15.97;;;7.63;;
8371;SDS011;4223;48.724;8.982;2023-01-25T03:02:53;8.60;;;7.77;;
8371;SDS011;4223;48.724;8.982;2023-01-25T03:05:20;11.87;;;8.37;;
8371;SDS011;4223;48.724;8.982;2023-01-25T03:07:46;11.60;;;10.53;;
8371;SDS011;4223;48.724;8.982;2023-01-25T03:10:13;10.07;;;9.13;;
8371;SDS011;4223;48.724;8.982;2023-01-25T03:12:40;8.77;;;6.57;;
8371;SDS011;4223;48.724;8.982;2023-01-25T03:15:07;20.70;;;8.97;;
8371;SDS011;4223;48.724;8.982;2023-01-25T03:17:36;8.63;;;7.93;;
8371;SDS011;4223;48.724;8.982;2023-01-25T03:20:03;9.57;;;8.17;;
8371;SDS011;4223;48.724;8.982;2023-01-25T03:22:30;8.93;;;8.17;;
8371;SDS011;4223;48.724;8.982;2023-01-25T03:24:57;9.63;;;7.23;;
8371;SDS011;4223;48.724;8.982;2023-01-25T03:27:24;9.63;;;8.73;;
8371;SDS011;4223;48.724;8.982;2023-01-25T03:29:50;7.53;;;6.90;;
8371;SDS011;4223;48.724;8.982;2023-01-25T03:32:17;9.53;;;8.53;;
8371;SDS011;4223;48.724;8.982;2023-01-25T03:34:45;13.87;;;8.83;;
8371;SDS011;4223;48.724;8.982;2023-01-25T03:37:12;8.80;;;8.00;;
8371;SDS011;4223;48.724;8.982;2023-01-25T03:39:39;7.83;;;7.10;;
8371;SDS011;4223;48.724;8.982;2023-01-25T03:42:06;5.73;;;5.17;;
8371;SDS011;4223;48.724;8.982;2023-01-25T03:44:33;8.23;;;7.40;;
8371;SDS011;4223;48.724;8.982;2023-01-25T03:46:59;13.50;;;8.67;;
8371;SDS011;4223;48.724;8.982;2023-01-25T03:49:26;12.17;;;10.30;;
8371;SDS011;4223;48.724;8.982;2023-01-25T03:51:54;8.10;;;7.50;;
8371;SDS011;4223;48.724;8.982;2023-01-25T03:54:22;9.37;;;8.47;;
8371;SDS011;4223;48.724;8.982;2023-01-25T03:56:49;8.07;;;7.37;;
8371;SDS011;4223;48.724;8.982;2023-01-25T03:59:16;7.93;;;6.37;;
8371;SDS011;4223;48.724;8.982;2023-01-25T04:01:43;11.00;;;10.00;;
8371;SDS011;4223;48.724;8.982;2023-01-25T04:04:10;9.50;;;8.53;;
8371;SDS011;4223;48.724;8.982;2023-01-25T04:06:37;8.83;;;8.13;;
8371;SDS011;4223;48.724;8.982;2023-01-25T04:09:05;6.37;;;5.97;;
8371;SDS011;4223;48.724;8.982;2023-01-25T04:11:32;9.93;;;8.80;;
8371;SDS011;4223;48.724;8.982;2023-01-25T04:13:59;9.07;;;8.23;;
8371;SDS011;4223;48.724;8.982;2023-01-25T04:16:25;10.03;;;9.17;;
8371;SDS011;4223;48.724;8.982;2023-01-25T04:18:54;9.27;;;8.43;;
8371;SDS011;4223;48.724;8.982;2023-01-25T04:21:21;8.67;;;7.87;;
8371;SDS011;4223;48.724;8.982;2023-01-25T04:23:48;8.20;;;7.40;;
8371;SDS011;4223;48.724;8.982;2023-01-25T04:26:16;13.50;;;7.10;;
8371;SDS011;4223;48.724;8.982;2023-01-25T04:28:43;7.90;;;7.37;;
8371;SDS011;4223;48.724;8.982;2023-01-25T04:31:10;9.47;;;8.67;;
8371;SDS011;4223;48.724;8.982;2023-01-25T04:33:36;9.33;;;8.40;;
8371;SDS011;4223;48.724;8.982;2023-01-25T04:36:03;9.40;;;8.50;;
8371;SDS011;4223;48.724;8.982;2023-01-25T04:38:30;8.13;;;7.40;;
8371;SDS011;4223;48.724;8.982;2023-01-25T04:40:57;7.27;;;6.67;;
8371;SDS011;4223;48.724;8.982;2023-01-25T04:43:26;9.50;;;8.53;;
8371;SDS011;4223;48.724;8.982;2023-01-25T04:45:53;17.40;;;10.33;;
8371;SDS011;4223;48.724;8.982;2023-01-25T04:48:20;9.20;;;8.37;;
8371;SDS011;4223;48.724;8.982;2023-01-25T04:50:46;6.63;;;6.13;;
8371;SDS011;4223;48.724;8.982;2023-01-25T04:53:13;15.43;;;7.57;;
8371;SDS011;4223;48.724;8.982;2023-01-25T04:55:43;8.30;;;7.57;;
8371;SDS011;4223;48.724;8.982;2023-01-25T04:58:11;7.10;;;6.43;;
8371;SDS011;4223;48.724;8.982;2023-01-25T05:00:40;6.67;;;6.23;;
8371;SDS011;4223;48.724;8.982;2023-01-25T05:03:07;9.33;;;8.57;;
8371;SDS011;4223;48.724;8.982;2023-01-25T05:05:34;8.87;;;8.10;;
8371;SDS011;4223;48.724;8.982;2023-01-25T05:08:00;7.97;;;7.37;;
8371;SDS011;4223;48.724;8.982;2023-01-25T05:10:27;6.27;;;5.87;;
8371;SDS011;4223;48.724;8.982;2023-01-25T05:12:54;7.83;;;6.80;;
8371;SDS011;4223;48.724;8.982;2023-01-25T05:15:21;8.53;;;7.73;;
8371;SDS011;4223;48.724;8.982;2023-01-25T05:17:49;8.03;;;7.33;;
8371;SDS011;4223;48.724;8.982;2023-01-25T05:20:16;9.87;;;7.93;;
8371;SDS011;4223;48.724;8.982;2023-01-25T05:22:43;7.23;;;6.43;;
8371;SDS011;4223;48.724;8.982;2023-01-25T05:25:09;8.83;;;6.83;;
8371;SDS011;4223;48.724;8.982;2023-01-25T05:27:50;9.03;;;8.23;;
8371;SDS011;4223;48.724;8.982;2023-01-25T05:30:17;8.40;;;7.70;;
8371;SDS011;4223;48.724;8.982;2023-01-25T05:32:44;8.57;;;7.50;;
8371;SDS011;4223;48.724;8.982;2023-01-25T05:35:12;6.57;;;6.07;;
8371;SDS011;4223;48.724;8.982;2023-01-25T05:37:39;6.63;;;6.03;;
8371;SDS011;4223;48.724;8.982;2023-01-25T05:40:07;15.10;;;7.33;;
8371;SDS011;4223;48.724;8.982;2023-01-25T05:42:34;7.57;;;6.87;;
8371;SDS011;4223;48.724;8.982;2023-01-25T05:45:01;6.30;;;5.80;;
8371;SDS011;4223;48.724;8.982;2023-01-25T05:47:28;7.33;;;6.77;;
8371;SDS011;4223;48.724;8.982;2023-01-25T05:49:56;6.47;;;6.00;;
8371;SDS011;4223;48.724;8.982;2023-01-25T05:52:24;10.23;;;7.77;;
8371;SDS011;4223;48.724;8.982;2023-01-25T05:54:51;6.30;;;5.80;;
8371;SDS011;4223;48.724;8.982;2023-01-25T05:57:17;7.03;;;6.00;;
8371;SDS011;4223;48.724;8.982;2023-01-25T05:59:44;8.03;;;7.33;;
8371;SDS011;4223;48.724;8.982;2023-01-25T06:02:11;6.70;;;6.07;;
8371;SDS011;4223;48.724;8.982;2023-01-25T06:04:38;6.93;;;6.33;;
8371;SDS011;4223;48.724;8.982;2023-01-25T06:07:05;5.13;;;4.67;;
8371;SDS011;4223;48.724;8.982;2023-01-25T06:09:33;9.10;;;5.97;;
8371;SDS011;4223;48.724;8.982;2023-01-25T06:12:00;7.23;;;6.57;;
8371;SDS011;4223;48.724;8.982;2023-01-25T06:14:27;11.60;;;8.63;;
8371;SDS011;4223;48.724;8.982;2023-01-25T06:16:54;6.30;;;5.80;;
8371;SDS011;4223;48.724;8.982;2023-01-25T06:19:21;7.50;;;7.00;;
8371;SDS011;4223;48.724;8.982;2023-01-25T06:21:48;9.07;;;7.83;;
8371;SDS011;4223;48.724;8.982;2023-01-25T06:24:15;6.73;;;6.23;;
8371;SDS011;4223;48.724;8.982;2023-01-25T06:26:43;7.30;;;6.40;;
8371;SDS011;4223;48.724;8.982;2023-01-25T06:29:10;5.93;;;5.40;;
8371;SDS011;4223;48.724;8.982;2023-01-25T06:31:37;7.23;;;6.73;;
8371;SDS011;4223;48.724;8.982;2023-01-25T06:34:04;6.70;;;6.10;;
8371;SDS011;4223;48.724;8.982;2023-01-25T06:36:32;5.97;;;5.67;;
8371;SDS011;4223;48.724;8.982;2023-01-25T06:38:59;10.20;;;5.43;;
8371;SDS011;4223;48.724;8.982;2023-01-25T06:41:26;7.87;;;6.93;;
8371;SDS011;4223;48.724;8.982;2023-01-25T06:43:54;6.53;;;6.03;;
8371;SDS011;4223;48.724;8.982;2023-01-25T06:46:21;5.27;;;4.77;;
8371;SDS011;4223;48.724;8.982;2023-01-25T06:48:48;9.50;;;6.67;;
8371;SDS011;4223;48.724;8.982;2023-01-25T06:51:15;7.40;;;6.83;;
8371;SDS011;4223;48.724;8.982;2023-01-25T06:53:43;8.13;;;7.43;;
8371;SDS011;4223;48.724;8.982;2023-01-25T06:56:12;7.67;;;6.90;;
8371;SDS011;4223;48.724;8.982;2023-01-25T06:58:41;5.43;;;5.10;;
8371;SDS011;4223;48.724;8.982;2023-01-25T07:01:11;6.83;;;6.10;;
8371;SDS011;4223;48.724;8.982;2023-01-25T07:03:39;7.33;;;6.73;;
8371;SDS011;4223;48.724;8.982;2023-01-25T07:06:08;5.90;;;5.27;;
8371;SDS011;4223;48.724;8.982;2023-01-25T07:08:36;5.70;;;5.30;;
8371;SDS011;4223;48.724;8.982;2023-01-25T07:11:04;7.50;;;6.80;;
8371;SDS011;4223;48.724;8.982;2023-01-25T07:13:33;6.27;;;5.60;;
8371;SDS011;4223;48.724;8.982;2023-01-25T07:16:01;5.40;;;5.10;;
8371;SDS011;4223;48.724;8.982;2023-01-25T07:18:31;6.33;;;5.93;;
8371;SDS011;4223;48.724;8.982;2023-01-25T07:21:01;5.33;;;4.93;;
8371;SDS011;4223;48.724;8.982;2023-01-25T07:23:29;5.93;;;5.43;;
8371;SDS011;4223;48.724;8.982;2023-01-25T07:25:57;4.57;;;4.37;;
8371;SDS011;4223;48.724;8.982;2023-01-25T07:28:24;8.00;;;7.27;;
8371;SDS011;4223;48.724;8.982;2023-01-25T07:30:51;5.50;;;5.13;;
8371;SDS011;4223;48.724;8.982;2023-01-25T07:33:18;9.23;;;7.53;;
8371;SDS011;4223;48.724;8.982;2023-01-25T07:35:46;8.17;;;7.37;;
8371;SDS011;4223;48.724;8.982;2023-01-25T07:38:15;9.03;;;5.20;;
8371;SDS011;4223;48.724;8.982;2023-01-25T07:40:42;6.90;;;6.37;;
8371;SDS011;4223;48.724;8.982;2023-01-25T07:43:09;7.27;;;6.53;;
8371;SDS011;4223;48.724;8.982;2023-01-25T07:45:36;6.10;;;5.00;;
8371;SDS011;4223;48.724;8.982;2023-01-25T07:48:06;7.27;;;6.77;;
8371;SDS011;4223;48.724;8.982;2023-01-25T07:50:34;6.53;;;6.13;;
8371;SDS011;4223;48.724;8.982;2023-01-25T07:53:03;8.47;;;6.97;;
8371;SDS011;4223;48.724;8.982;2023-01-25T07:55:29;6.40;;;6.00;;
8371;SDS011;4223;48.724;8.982;2023-01-25T07:57:56;6.87;;;6.27;;
8371;SDS011;4223;48.724;8.982;2023-01-25T08:00:23;7.07;;;6.40;;
8371;SDS011;4223;48.724;8.982;2023-01-25T08:02:50;7.30;;;6.63;;
8371;SDS011;4223;48.724;8.982;2023-01-25T08:05:17;7.20;;;6.50;;
8371;SDS011;4223;48.724;8.982;2023-01-25T08:07:45;8.07;;;7.43;;
8371;SDS011;4223;48.724;8.982;2023-01-25T08:10:14;7.03;;;6.37;;
8371;SDS011;4223;48.724;8.982;2023-01-25T08:12:43;7.50;;;6.87;;
8371;SDS011;4223;48.724;8.982;2023-01-25T08:15:10;6.73;;;6.13;;
8371;SDS011;4223;48.724;8.982;2023-01-25T08:17:37;7.73;;;6.87;;
8371;SDS011;4223;48.724;8.982;2023-01-25T08:20:05;6.20;;;5.70;;
8371;SDS011;4223;48.724;8.982;2023-01-25T08:22:33;16.27;;;5.83;;
8371;SDS011;4223;48.724;8.982;2023-01-25T08:24:59;6.30;;;5.90;;
8371;SDS011;4223;48.724;8.982;2023-01-25T08:27:28;9.53;;;5.60;;
8371;SDS011;4223;48.724;8.982;2023-01-25T08:29:54;7.33;;;6.63;;
8371;SDS011;4223;48.724;8.982;2023-01-25T08:32:21;6.47;;;5.73;;
8371;SDS011;4223;48.724;8.982;2023-01-25T08:34:48;9.70;;;7.30;;
8371;SDS011;4223;48.724;8.982;2023-01-25T08:37:15;6.43;;;5.20;;
8371;SDS011;4223;48.724;8.982;2023-01-25T08:39:42;5.07;;;4.77;;
8371;SDS011;4223;48.724;8.982;2023-01-25T08:42:09;5.97;;;5.27;;
8371;SDS011;4223;48.724;8.982;2023-01-25T08:44:37;5.73;;;5.23;;
8371;SDS011;4223;48.724;8.982;2023-01-25T08:47:04;7.43;;;6.30;;
8371;SDS011;4223;48.724;8.982;2023-01-25T08:49:31;5.23;;;4.83;;
8371;SDS011;4223;48.724;8.982;2023-01-25T08:51:58;6.40;;;5.97;;
8371;SDS011;4223;48.724;8.982;2023-01-25T08:54:25;4.77;;;4.40;;
8371;SDS011;4223;48.724;8.982;2023-01-25T08:56:52;13.33;;;5.27;;
8371;SDS011;4223;48.724;8.982;2023-01-25T08:59:19;6.03;;;5.60;;
8371;SDS011;4223;48.724;8.982;2023-01-25T09:01:47;7.63;;;7.03;;
8371;SDS011;4223;48.724;8.982;2023-01-25T09:04:14;5.50;;;5.10;;
8371;SDS011;4223;48.724;8.982;2023-01-25T09:06:40;4.53;;;4.03;;
8371;SDS011;4223;48.724;8.982;2023-01-25T09:09:07;5.47;;;4.63;;
8371;SDS011;4223;48.724;8.982;2023-01-25T09:11:34;5.33;;;4.93;;
8371;SDS011;4223;48.724;8.982;2023-01-25T09:14:02;4.87;;;4.47;;
8371;SDS011;4223;48.724;8.982;2023-01-25T09:16:29;5.13;;;4.73;;
8371;SDS011;4223;48.724;8.982;2023-01-25T09:18:58;4.63;;;3.43;;
8371;SDS011;4223;48.724;8.982;2023-01-25T09:21:26;5.30;;;4.90;;
8371;SDS011;4223;48.724;8.982;2023-01-25T09:23:53;5.67;;;5.30;;
8371;SDS011;4223;48.724;8.982;2023-01-25T09:26:20;5.03;;;4.73;;
8371;SDS011;4223;48.724;8.982;2023-01-25T09:28:47;5.80;;;5.30;;
8371;SDS011;4223;48.724;8.982;2023-01-25T09:31:16;8.63;;;6.10;;
8371;SDS011;4223;48.724;8.982;2023-01-25T09:33:44;5.57;;;5.27;;
8371;SDS011;4223;48.724;8.982;2023-01-25T09:36:12;5.40;;;5.00;;
8371;SDS011;4223;48.724;8.982;2023-01-25T09:38:39;6.83;;;6.27;;
8371;SDS011;4223;48.724;8.982;2023-01-25T09:41:10;8.90;;;7.00;;
8371;SDS011;4223;48.724;8.982;2023-01-25T09:46:35;6.50;;;6.03;;
8371;SDS011;4223;48.724;8.982;2023-01-25T09:49:11;8.17;;;6.67;;
8371;SDS011;4223;48.724;8.982;2023-01-25T09:51:56;8.93;;;6.33;;
8371;SDS011;4223;48.724;8.982;2023-01-25T09:54:36;6.73;;;6.23;;
8371;SDS011;4223;48.724;8.982;2023-01-25T09:57:06;5.43;;;5.10;;
8371;SDS011;4223;48.724;8.982;2023-01-25T09:59:39;6.33;;;5.73;;
8371;SDS011;4223;48.724;8.982;2023-01-25T10:02:11;4.57;;;4.33;;
8371;SDS011;4223;48.724;8.982;2023-01-25T10:04:50;5.00;;;4.67;;
8371;SDS011;4223;48.724;8.982;2023-01-25T10:07:20;7.23;;;5.00;;
8371;SDS011;4223;48.724;8.982;2023-01-25T10:09:53;12.83;;;6.80;;
8371;SDS011;4223;48.724;8.982;2023-01-25T10:12:23;5.40;;;4.90;;
8371;SDS011;4223;48.724;8.982;2023-01-25T10:14:51;5.53;;;5.10;;
8371;SDS011;4223;48.724;8.982;2023-01-25T10:17:22;4.17;;;3.97;;
8371;SDS011;4223;48.724;8.982;2023-01-25T10:19:59;5.23;;;4.73;;
8371;SDS011;4223;48.724;8.982;2023-01-25T10:22:36;4.53;;;4.17;;
8371;SDS011;4223;48.724;8.982;2023-01-25T10:25:22;5.03;;;4.67;;
8371;SDS011;4223;48.724;8.982;2023-01-25T10:27:58;6.00;;;5.60;;
8371;SDS011;4223;48.724;8.982;2023-01-25T10:30:42;11.27;;;5.23;;
8371;SDS011;4223;48.724;8.982;2023-01-25T10:33:18;5.43;;;4.93;;
8371;SDS011;4223;48.724;8.982;2023-01-25T10:35:46;7.17;;;6.47;;
8371;SDS011;4223;48.724;8.982;2023-01-25T10:38:18;5.67;;;5.37;;
8371;SDS011;4223;48.724;8.982;2023-01-25T10:40:51;6.57;;;5.90;;
8371;SDS011;4223;48.724;8.982;2023-01-25T10:43:22;5.40;;;4.90;;
8371;SDS011;4223;48.724;8.982;2023-01-25T10:45:49;6.63;;;6.13;;
8371;SDS011;4223;48.724;8.982;2023-01-25T10:48:17;5.60;;;5.10;;
8371;SDS011;4223;48.724;8.982;2023-01-25T10:50:47;4.73;;;4.43;;
8371;SDS011;4223;48.724;8.982;2023-01-25T10:53:21;5.60;;;5.07;;
8371;SDS011;4223;48.724;8.982;2023-01-25T10:55:54;4.83;;;4.43;;
8371;SDS011;4223;48.724;8.982;2023-01-25T10:58:28;7.53;;;7.00;;
8371;SDS011;4223;48.724;8.982;2023-01-25T11:00:57;5.93;;;5.53;;
8371;SDS011;4223;48.724;8.982;2023-01-25T11:03:31;6.43;;;5.87;;
8371;SDS011;4223;48.724;8.982;2023-01-25T11:06:00;6.03;;;5.53;;
8371;SDS011;4223;48.724;8.982;2023-01-25T11:08:32;13.33;;;5.30;;
8371;SDS011;4223;48.724;8.982;2023-01-25T11:11:11;5.53;;;5.13;;
8371;SDS011;4223;48.724;8.982;2023-01-25T11:13:47;5.03;;;4.60;;
8371;SDS011;4223;48.724;8.982;2023-01-25T11:16:19;5.93;;;5.43;;
8371;SDS011;4223;48.724;8.982;2023-01-25T11:18:57;5.87;;;5.23;;
8371;SDS011;4223;48.724;8.982;2023-01-25T11:21:25;5.27;;;4.87;;
8371;SDS011;4223;48.724;8.982;2023-01-25T11:24:02;4.57;;;4.30;;
8371;SDS011;4223;48.724;8.982;2023-01-25T11:26:40;5.50;;;5.10;;
8371;SDS011;4223;48.724;8.982;2023-01-25T11:29:14;7.50;;;6.00;;
8371;SDS011;4223;48.724;8.982;2023-01-25T11:31:43;5.70;;;5.30;;
8371;SDS011;4223;48.724;8.982;2023-01-25T11:34:13;5.90;;;5.47;;
8371;SDS011;4223;48.724;8.982;2023-01-25T11:36:49;5.13;;;4.83;;
8371;SDS011;4223;48.724;8.982;2023-01-25T11:39:27;6.43;;;5.93;;
8371;SDS011;4223;48.724;8.982;2023-01-25T11:42:07;5.57;;;4.93;;
8371;SDS011;4223;48.724;8.982;2023-01-25T11:47:40;6.23;;;5.67;;
8371;SDS011;4223;48.724;8.982;2023-01-25T11:50:14;8.10;;;5.47;;
8371;SDS011;4223;48.724;8.982;2023-01-25T11:52:53;5.37;;;4.90;;
8371;SDS011;4223;48.724;8.982;2023-01-25T11:55:41;4.87;;;4.57;;
8371;SDS011;4223;48.724;8.982;2023-01-25T11:58:20;5.57;;;5.07;;
8371;SDS011;4223;48.724;8.982;2023-01-25T12:01:01;6.03;;;4.40;;
8371;SDS011;4223;48.724;8.982;2023-01-25T12:03:44;5.00;;;4.70;;
8371;SDS011;4223;48.724;8.982;2023-01-25T12:06:32;6.70;;;5.87;;
8371;SDS011;4223;48.724;8.982;2023-01-25T12:09:21;6.37;;;5.80;;
8371;SDS011;4223;48.724;8.982;2023-01-25T12:12:02;6.83;;;6.30;;
8371;SDS011;4223;48.724;8.982;2023-01-25T12:14:39;5.67;;;5.13;;
8371;SDS011;4223;48.724;8.982;2023-01-25T12:17:24;6.07;;;4.87;;
8371;SDS011;4223;48.724;8.982;2023-01-25T12:20:09;6.23;;;5.00;;
8371;SDS011;4223;48.724;8.982;2023-01-25T12:28:38;6.20;;;5.80;;
8371;SDS011;4223;48.724;8.982;2023-01-25T12:31:09;7.70;;;7.07;;
8371;SDS011;4223;48.724;8.982;2023-01-25T12:33:42;5.77;;;5.37;;
8371;SDS011;4223;48.724;8.982;2023-01-25T12:36:12;8.67;;;5.73;;
8371;SDS011;4223;48.724;8.982;2023-01-25T12:38:47;9.13;;;8.47;;
8371;SDS011;4223;48.724;8.982;2023-01-25T12:41:22;5.73;;;5.33;;
8371;SDS011;4223;48.724;8.982;2023-01-25T12:43:56;6.10;;;5.70;;
8371;SDS011;4223;48.724;8.982;2023-01-25T12:46:29;8.13;;;6.37;;
8371;SDS011;4223;48.724;8.982;2023-01-25T12:49:06;6.10;;;5.47;;
8371;SDS011;4223;48.724;8.982;2023-01-25T12:51:43;6.43;;;5.83;;
8371;SDS011;4223;48.724;8.982;2023-01-25T12:54:14;6.97;;;6.37;;
8371;SDS011;4223;48.724;8.982;2023-01-25T12:56:45;5.50;;;5.20;;
8371;SDS011;4223;48.724;8.982;2023-01-25T12:59:26;5.10;;;4.80;;
8371;SDS011;4223;48.724;8.982;2023-01-25T13:02:00;5.30;;;5.00;;
8371;SDS011;4223;48.724;8.982;2023-01-25T13:04:40;6.10;;;5.50;;
8371;SDS011;4223;48.724;8.982;2023-01-25T13:07:19;4.83;;;4.60;;
8371;SDS011;4223;48.724;8.982;2023-01-25T13:09:51;6.40;;;5.90;;
8371;SDS011;4223;48.724;8.982;2023-01-25T13:12:23;6.20;;;5.63;;
8371;SDS011;4223;48.724;8.982;2023-01-25T13:14:52;5.73;;;5.40;;
8371;SDS011;4223;48.724;8.982;2023-01-25T13:17:20;12.50;;;5.10;;
8371;SDS011;4223;48.724;8.982;2023-01-25T13:19:49;6.57;;;6.03;;
8371;SDS011;4223;48.724;8.982;2023-01-25T13:25:22;6.53;;;6.03;;
8371;SDS011;4223;48.724;8.982;2023-01-25T13:27:50;7.10;;;6.07;;
8371;SDS011;4223;48.724;8.982;2023-01-25T13:30:30;9.77;;;8.87;;
8371;SDS011;4223;48.724;8.982;2023-01-25T13:32:59;15.27;;;11.43;;
8371;SDS011;4223;48.724;8.982;2023-01-25T13:35:40;6.67;;;5.83;;
8371;SDS011;4223;48.724;8.982;2023-01-25T13:38:28;6.87;;;6.37;;
8371;SDS011;4223;48.724;8.982;2023-01-25T13:41:06;6.33;;;5.83;;
8371;SDS011;4223;48.724;8.982;2023-01-25T13:43:37;6.73;;;6.23;;
8371;SDS011;4223;48.724;8.982;2023-01-25T13:46:11;6.80;;;6.03;;
8371;SDS011;4223;48.724;8.982;2023-01-25T13:48:49;5.77;;;5.37;;
8371;SDS011;4223;48.724;8.982;2023-01-25T13:51:22;7.80;;;7.30;;
8371;SDS011;4223;48.724;8.982;2023-01-25T13:53:56;7.33;;;6.77;;
8371;SDS011;4223;48.724;8.982;2023-01-25T13:56:25;7.77;;;6.57;;
8371;SDS011;4223;48.724;8.982;2023-01-25T13:58:54;9.97;;;5.50;;
8371;SDS011;4223;48.724;8.982;2023-01-25T14:01:22;8.83;;;8.20;;
8371;SDS011;4223;48.724;8.982;2023-01-25T14:03:51;6.73;;;6.13;;
8371;SDS011;4223;48.724;8.982;2023-01-25T14:06:23;7.07;;;6.57;;
8371;SDS011;4223;48.724;8.982;2023-01-25T14:08:53;8.83;;;6.53;;
8371;SDS011;4223;48.724;8.982;2023-01-25T14:11:22;7.47;;;6.93;;
8371;SDS011;4223;48.724;8.982;2023-01-25T14:13:54;6.03;;;5.63;;
8371;SDS011;4223;48.724;8.982;2023-01-25T14:16:27;8.03;;;5.90;;
8371;SDS011;4223;48.724;8.982;2023-01-25T14:18:56;8.77;;;7.93;;
8371;SDS011;4223;48.724;8.982;2023-01-25T14:21:38;8.70;;;7.97;;
8371;SDS011;4223;48.724;8.982;2023-01-25T14:24:07;9.37;;;7.93;;
8371;SDS011;4223;48.724;8.982;2023-01-25T14:26:35;6.37;;;5.97;;
8371;SDS011;4223;48.724;8.982;2023-01-25T14:29:11;7.20;;;6.30;;
8371;SDS011;4223;48.724;8.982;2023-01-25T14:31:45;7.67;;;7.07;;
8371;SDS011;4223;48.724;8.982;2023-01-25T14:34:16;10.20;;;7.17;;
8371;SDS011;4223;48.724;8.982;2023-01-25T14:36:44;9.17;;;7.70;;
8371;SDS011;4223;48.724;8.982;2023-01-25T14:39:21;8.27;;;7.53;;
8371;SDS011;4223;48.724;8.982;2023-01-25T14:41:52;10.43;;;8.13;;
8371;SDS011;4223;48.724;8.982;2023-01-25T14:44:20;6.87;;;6.47;;
8371;SDS011;4223;48.724;8.982;2023-01-25T14:46:49;8.43;;;7.30;;
8371;SDS011;4223;48.724;8.982;2023-01-25T14:49:46;12.83;;;6.97;;
8371;SDS011;4223;48.724;8.982;2023-01-25T14:52:15;6.60;;;5.90;;
8371;SDS011;4223;48.724;8.982;2023-01-25T14:54:45;7.70;;;6.83;;
8371;SDS011;4223;48.724;8.982;2023-01-25T14:57:24;9.13;;;8.53;;
8371;SDS011;4223;48.724;8.982;2023-01-25T14:59:57;7.40;;;6.80;;
8371;SDS011;4223;48.724;8.982;2023-01-25T15:02:28;7.43;;;6.43;;
8371;SDS011;4223;48.724;8.982;2023-01-25T15:05:01;5.83;;;5.53;;
8371;SDS011;4223;48.724;8.982;2023-01-25T15:07:35;8.40;;;6.43;;
8371;SDS011;4223;48.724;8.982;2023-01-25T15:10:15;8.50;;;7.87;;
8371;SDS011;4223;48.724;8.982;2023-01-25T15:12:54;7.57;;;6.97;;
8371;SDS011;4223;48.724;8.982;2023-01-25T15:15:23;8.67;;;7.83;;
8371;SDS011;4223;48.724;8.982;2023-01-25T15:17:53;4.87;;;4.67;;
8371;SDS011;4223;48.724;8.982;2023-01-25T15:20:28;6.77;;;6.27;;
8371;SDS011;4223;48.724;8.982;2023-01-25T15:23:01;15.17;;;8.23;;
8371;SDS011;4223;48.724;8.982;2023-01-25T15:25:52;6.87;;;6.37;;
8371;SDS011;4223;48.724;8.982;2023-01-25T15:28:20;6.97;;;6.37;;
8371;SDS011;4223;48.724;8.982;2023-01-25T15:30:48;9.33;;;6.37;;
8371;SDS011;4223;48.724;8.982;2023-01-25T15:33:19;6.40;;;5.90;;
8371;SDS011;4223;48.724;8.982;2023-01-25T15:35:47;18.40;;;6.23;;
8371;SDS011;4223;48.724;8.982;2023-01-25T15:38:14;9.37;;;7.93;;
8371;SDS011;4223;48.724;8.982;2023-01-25T15:40:42;9.13;;;8.43;;
8371;SDS011;4223;48.724;8.982;2023-01-25T15:43:10;11.13;;;9.73;;
8371;SDS011;4223;48.724;8.982;2023-01-25T15:45:37;8.63;;;7.90;;